createdAt,value
2022-12-19T00:00:36.925Z,77.73
2022-12-19T00:03:05.221Z,78.12
2022-12-19T00:05:37.529Z,77.84
2022-12-19T00:08:09.999Z,77.60
2022-12-19T00:10:45.679Z,77.68
2022-12-19T00:13:15.754Z,77.94
2022-12-19T00:15:45.077Z,77.72
2022-12-19T00:18:13.070Z,78.39
2022-12-19T00:20:40.990Z,77.57
2022-12-19T00:23:09.009Z,77.47
2022-12-19T00:25:36.906Z,77.13
2022-12-19T00:28:08.206Z,76.97
2022-12-19T00:30:35.952Z,78.00
2022-12-19T00:33:05.077Z,77.88
2022-12-19T00:35:33.197Z,78.49
2022-12-19T00:38:01.140Z,78.19
2022-12-19T00:40:28.908Z,77.66
2022-12-19T00:42:56.738Z,77.60
2022-12-19T00:45:26.074Z,77.44
2022-12-19T00:47:53.913Z,76.80
2022-12-19T00:50:23.052Z,76.90
2022-12-19T00:52:50.808Z,77.49
2022-12-19T00:55:19.686Z,76.79
2022-12-19T00:57:48.104Z,77.02
2022-12-19T01:00:18.327Z,77.33
2022-12-19T01:02:46.961Z,78.09
2022-12-19T01:05:15.380Z,77.51
2022-12-19T01:07:44.838Z,77.99
2022-12-19T01:10:12.863Z,77.85
2022-12-19T01:12:45.897Z,77.89
2022-12-19T01:15:16.562Z,78.43
2022-12-19T01:17:45.200Z,78.23
2022-12-19T01:20:15.663Z,78.79
2022-12-19T01:22:45.243Z,79.20
2022-12-19T01:25:13.580Z,78.64
2022-12-19T01:27:41.854Z,78.15
2022-12-19T01:30:12.009Z,78.42
2022-12-19T01:32:40.238Z,77.84
2022-12-19T01:35:11.790Z,78.87
2022-12-19T01:37:51.513Z,79.21
2022-12-19T01:40:20.031Z,79.87
2022-12-19T01:42:48.501Z,80.54
2022-12-19T01:45:33.472Z,81.21
2022-12-19T01:48:19.655Z,81.49
2022-12-19T01:51:02.546Z,82.15
2022-12-19T01:53:48.406Z,81.26
2022-12-19T01:56:20.586Z,82.61
2022-12-19T01:59:00.571Z,81.48
2022-12-19T02:01:35.638Z,82.82
2022-12-19T02:04:07.240Z,82.12
2022-12-19T02:06:36.608Z,81.92
2022-12-19T02:09:05.802Z,82.05
2022-12-19T02:11:34.105Z,82.00
2022-12-19T02:14:02.402Z,82.90
2022-12-19T02:16:47.547Z,83.43
2022-12-19T02:19:55.503Z,83.83
2022-12-19T02:22:41.535Z,83.50
2022-12-19T02:25:49.488Z,83.97
2022-12-19T02:28:51.522Z,83.49
2022-12-19T02:31:30.418Z,83.96
2022-12-19T02:34:10.501Z,84.72
2022-12-19T02:36:46.259Z,84.62
2022-12-19T02:39:24.297Z,85.19
2022-12-19T02:41:58.036Z,85.64
2022-12-19T02:44:31.413Z,84.38
2022-12-19T02:47:04.635Z,84.18
2022-12-19T02:49:35.561Z,84.26
2022-12-19T02:52:10.361Z,84.65
2022-12-19T02:54:40.745Z,84.15
2022-12-19T02:57:21.481Z,85.64
2022-12-19T03:00:06.265Z,85.04
2022-12-19T03:02:57.907Z,84.51
2022-12-19T03:05:41.950Z,84.14
2022-12-19T03:08:24.563Z,83.56
2022-12-19T03:11:00.057Z,83.15
2022-12-19T03:13:35.117Z,83.74
2022-12-19T03:16:05.844Z,83.77
2022-12-19T03:18:36.129Z,83.51
2022-12-19T03:21:12.263Z,83.58
2022-12-19T03:23:41.382Z,83.16
2022-12-19T03:26:21.729Z,83.17
2022-12-19T03:28:57.097Z,83.79
2022-12-19T03:31:28.793Z,83.49
2022-12-19T03:34:03.432Z,83.56
2022-12-19T03:36:39.611Z,83.60
2022-12-19T03:39:11.117Z,83.09
2022-12-19T03:42:01.968Z,83.27
2022-12-19T03:44:36.323Z,83.67
2022-12-19T03:47:12.389Z,84.24
2022-12-19T03:49:42.490Z,83.42
2022-12-19T03:52:27.018Z,84.21
2022-12-19T03:55:07.289Z,84.22
2022-12-19T03:57:42.382Z,83.40
2022-12-19T04:00:17.044Z,83.53
2022-12-19T04:02:49.869Z,84.11
2022-12-19T04:05:24.110Z,83.90
2022-12-19T04:07:59.486Z,83.20
2022-12-19T04:10:31.019Z,82.92
2022-12-19T04:13:05.655Z,83.37
2022-12-19T04:15:46.700Z,83.67
2022-12-19T04:18:16.477Z,83.56
2022-12-19T04:20:55.985Z,83.18
2022-12-19T04:23:31.467Z,83.29
2022-12-19T04:26:05.263Z,83.31
2022-12-19T04:28:39.466Z,84.07
2022-12-19T04:31:12.451Z,83.94
2022-12-19T04:33:40.321Z,83.33
2022-12-19T04:36:11.349Z,84.29
2022-12-19T04:38:40.064Z,84.22
2022-12-19T04:41:08.559Z,84.06
2022-12-19T04:43:36.757Z,84.03
2022-12-19T04:46:04.696Z,84.66
2022-12-19T04:48:32.554Z,83.96
2022-12-19T04:51:00.407Z,83.54
2022-12-19T04:53:29.708Z,83.98
2022-12-19T04:56:02.668Z,84.31
2022-12-19T04:58:30.897Z,83.59
2022-12-19T05:01:03.274Z,84.15
2022-12-19T05:03:31.215Z,84.49
2022-12-19T05:06:11.467Z,84.17
2022-12-19T05:08:43.049Z,84.46
2022-12-19T05:11:19.243Z,84.30
2022-12-19T05:13:47.925Z,84.23
2022-12-19T05:16:16.090Z,84.52
2022-12-19T05:18:44.797Z,84.63
2022-12-19T05:21:12.965Z,84.69
2022-12-19T05:23:42.091Z,84.80
2022-12-19T05:26:12.041Z,84.84
2022-12-19T05:28:41.018Z,85.03
2022-12-19T05:31:12.131Z,84.87
2022-12-19T05:33:42.925Z,84.56
2022-12-19T05:36:12.662Z,84.98
2022-12-19T05:38:43.017Z,84.82
2022-12-19T05:41:18.713Z,85.38
2022-12-19T05:43:52.103Z,84.66
2022-12-19T05:46:21.208Z,85.35
2022-12-19T05:48:49.478Z,85.58
2022-12-19T05:51:17.795Z,85.73
2022-12-19T05:53:46.976Z,85.42
2022-12-19T05:56:18.413Z,85.69
2022-12-19T05:58:47.530Z,85.79
2022-12-19T06:01:18.498Z,85.31
2022-12-19T06:03:47.869Z,85.34
2022-12-19T06:06:22.519Z,85.63
2022-12-19T06:08:56.080Z,85.05
2022-12-19T06:11:25.927Z,84.93
2022-12-19T06:13:55.154Z,85.16
2022-12-19T06:16:24.289Z,86.28
2022-12-19T06:18:52.233Z,86.06
2022-12-19T06:21:23.503Z,85.98
2022-12-19T06:23:52.105Z,85.82
2022-12-19T06:26:23.448Z,85.50
2022-12-19T06:28:53.754Z,85.69
2022-12-19T06:31:23.584Z,85.47
2022-12-19T06:33:53.188Z,85.31
2022-12-19T06:36:24.615Z,85.19
2022-12-19T06:38:54.084Z,85.87
2022-12-19T06:41:40.946Z,85.78
2022-12-19T06:44:12.574Z,85.83
2022-12-19T06:46:41.226Z,85.43
2022-12-19T06:49:10.736Z,85.02
2022-12-19T06:51:39.101Z,85.38
2022-12-19T06:54:07.367Z,85.30
2022-12-19T06:56:39.313Z,85.63
2022-12-19T06:59:08.905Z,85.37
2022-12-19T07:01:52.451Z,85.26
2022-12-19T07:04:29.666Z,85.51
2022-12-19T07:06:58.467Z,85.80
2022-12-19T07:09:28.985Z,86.13
2022-12-19T07:11:58.237Z,85.49
2022-12-19T07:14:26.369Z,85.76
2022-12-19T07:16:56.209Z,86.07
2022-12-19T07:19:24.409Z,85.91
2022-12-19T07:21:52.457Z,86.12
2022-12-19T07:24:23.138Z,85.83
2022-12-19T07:26:51.365Z,85.83
2022-12-19T07:29:20.778Z,86.11
2022-12-19T07:31:48.613Z,86.04
2022-12-19T07:34:16.442Z,85.81
2022-12-19T07:36:44.573Z,85.73
2022-12-19T07:39:12.437Z,86.34
2022-12-19T07:41:40.678Z,86.40
2022-12-19T07:44:09.504Z,87.05
2022-12-19T07:46:39.734Z,86.26
2022-12-19T07:49:07.487Z,86.47
2022-12-19T07:51:35.311Z,86.50
2022-12-19T07:54:03.751Z,86.47
2022-12-19T07:56:31.502Z,86.00
2022-12-19T07:58:59.887Z,85.83
2022-12-19T08:01:28.653Z,86.82
2022-12-19T08:03:59.081Z,86.40
2022-12-19T08:06:27.406Z,86.17
2022-12-19T08:08:56.091Z,86.19
2022-12-19T08:11:27.280Z,86.52
2022-12-19T08:13:56.573Z,86.33
2022-12-19T08:16:28.033Z,86.33
2022-12-19T08:18:56.623Z,86.32
2022-12-19T08:21:26.426Z,86.21
2022-12-19T08:23:54.654Z,86.26
2022-12-19T08:26:25.875Z,86.00
2022-12-19T08:28:55.844Z,86.03
2022-12-19T08:31:26.579Z,86.26
2022-12-19T08:33:55.955Z,85.88
2022-12-19T08:36:26.443Z,86.26
2022-12-19T08:38:55.286Z,86.33
2022-12-19T08:41:23.605Z,86.36
2022-12-19T08:43:54.424Z,86.46
2022-12-19T08:46:24.233Z,86.18
2022-12-19T08:48:52.697Z,86.13
2022-12-19T08:51:21.014Z,85.08
2022-12-19T08:53:50.556Z,85.57
2022-12-19T08:56:21.622Z,85.67
2022-12-19T08:58:52.808Z,85.44
2022-12-19T09:01:23.904Z,85.93
2022-12-19T09:04:32.121Z,85.93
2022-12-19T09:06:40.177Z,85.77
2022-12-19T09:09:09.427Z,85.38
2022-12-19T09:11:46.614Z,85.56
2022-12-19T09:14:21.212Z,85.88
2022-12-19T09:16:49.883Z,86.03
2022-12-19T09:19:18.631Z,85.91
2022-12-19T09:21:46.505Z,86.55
2022-12-19T09:24:15.644Z,86.34
2022-12-19T09:26:44.975Z,86.02
2022-12-19T09:29:20.534Z,86.46
2022-12-19T09:31:51.827Z,85.84
2022-12-19T09:34:24.860Z,87.05
2022-12-19T09:37:05.148Z,85.97
2022-12-19T09:39:35.558Z,86.58
2022-12-19T09:42:51.248Z,85.26
2022-12-19T09:45:50.198Z,86.09
2022-12-19T09:48:24.462Z,85.59
2022-12-19T09:51:09.521Z,85.37
2022-12-19T09:53:55.787Z,84.66
2022-12-19T09:56:31.365Z,85.19
2022-12-19T09:59:13.877Z,86.07
2022-12-19T10:01:56.171Z,85.71
2022-12-19T10:04:29.067Z,86.56
2022-12-19T10:07:11.825Z,86.05
2022-12-19T10:12:34.115Z,86.29
2022-12-19T10:13:13.568Z,86.84
2022-12-19T10:16:00.222Z,86.20
2022-12-19T10:18:51.133Z,86.31
2022-12-19T10:22:15.698Z,87.14
2022-12-19T10:25:08.197Z,86.37
2022-12-19T10:27:59.840Z,86.43
2022-12-19T10:30:35.950Z,86.43
2022-12-19T10:33:20.806Z,86.39
2022-12-19T10:36:02.362Z,86.36
2022-12-19T10:38:40.249Z,86.85
2022-12-19T10:41:25.579Z,86.07
2022-12-19T10:44:03.329Z,86.15
2022-12-19T10:46:42.203Z,86.63
2022-12-19T10:49:16.929Z,85.51
2022-12-19T10:51:58.794Z,85.90
2022-12-19T10:54:33.529Z,85.97
2022-12-19T10:57:25.482Z,85.77
2022-12-19T10:59:57.732Z,85.70
2022-12-19T11:02:44.477Z,85.92
2022-12-19T11:05:27.318Z,86.48
2022-12-19T11:08:12.079Z,85.71
2022-12-19T11:11:51.977Z,85.60
2022-12-19T11:19:26.812Z,86.13
2022-12-19T11:22:14.537Z,85.32
2022-12-19T11:29:30.654Z,85.44
2022-12-19T11:29:42.671Z,86.02
2022-12-19T11:30:39.086Z,85.38
2022-12-19T11:30:39.348Z,85.66
2022-12-19T11:34:14.597Z,86.25
2022-12-19T11:36:48.971Z,85.50
2022-12-19T11:39:24.009Z,85.94
2022-12-19T11:42:24.467Z,85.01
2022-12-19T11:45:04.330Z,84.55
2022-12-19T11:47:41.139Z,84.01
2022-12-19T11:50:18.943Z,84.14
2022-12-19T11:53:04.523Z,83.75
2022-12-19T11:55:45.338Z,83.67
2022-12-19T11:58:14.513Z,83.89
2022-12-19T12:00:56.611Z,84.18
2022-12-19T12:04:02.712Z,84.27
2022-12-19T12:06:35.756Z,84.21
2022-12-19T12:14:25.301Z,84.41
2022-12-19T12:18:07.456Z,83.88
2022-12-19T12:28:55.874Z,83.68
2022-12-19T12:31:08.774Z,84.54
2022-12-19T12:31:18.475Z,84.06
2022-12-19T12:31:47.726Z,84.54
2022-12-19T12:32:04.347Z,84.28
2022-12-19T12:35:56.946Z,84.21
2022-12-19T12:41:16.112Z,83.92
2022-12-19T12:44:02.049Z,83.85
2022-12-19T12:46:38.364Z,83.67
2022-12-19T12:49:15.745Z,83.12
2022-12-19T12:51:44.007Z,82.33
2022-12-19T12:54:16.891Z,82.26
2022-12-19T12:56:48.375Z,82.15
2022-12-19T12:59:28.308Z,82.72
2022-12-19T13:01:59.345Z,82.41
2022-12-19T13:04:33.211Z,82.15
2022-12-19T13:07:30.058Z,82.02
2022-12-19T13:10:22.105Z,81.22
2022-12-19T13:13:14.316Z,81.06
2022-12-19T13:15:44.965Z,80.86
2022-12-19T13:18:34.518Z,80.94
2022-12-19T13:21:06.994Z,80.45
2022-12-19T13:23:49.440Z,80.25
2022-12-19T13:26:52.279Z,79.74
2022-12-19T13:29:54.495Z,79.92
2022-12-19T13:32:24.322Z,79.57
2022-12-19T13:35:04.800Z,79.11
2022-12-19T13:39:56.401Z,79.77
2022-12-19T13:40:55.603Z,79.34
2022-12-19T13:43:46.552Z,80.11
2022-12-19T13:46:42.509Z,79.45
2022-12-19T13:49:18.634Z,80.29
2022-12-19T13:51:53.346Z,79.46
2022-12-19T13:54:28.368Z,80.03
2022-12-19T13:57:09.025Z,79.75
2022-12-19T13:59:54.320Z,79.22
2022-12-19T14:02:33.880Z,79.48
2022-12-19T14:05:53.349Z,79.42
2022-12-19T14:08:22.079Z,78.80
2022-12-19T14:11:40.625Z,79.54
2022-12-19T14:14:15.058Z,78.73
2022-12-19T14:16:45.609Z,79.35
2022-12-19T14:19:24.948Z,78.43
2022-12-19T14:22:04.179Z,78.77
2022-12-19T14:24:40.344Z,78.43
2022-12-19T14:28:19.473Z,79.33
2022-12-19T14:30:27.655Z,79.48
2022-12-19T14:33:46.784Z,78.21
2022-12-19T14:36:11.336Z,78.08
2022-12-19T14:39:24.397Z,78.75
2022-12-19T14:42:01.845Z,78.54
2022-12-19T14:52:34.426Z,78.93
2022-12-19T14:53:52.995Z,78.91
2022-12-19T14:54:14.242Z,78.51
2022-12-19T14:54:35.863Z,78.78
2022-12-19T14:59:02.944Z,78.62
2022-12-19T15:01:36.535Z,78.23
2022-12-19T15:04:49.092Z,77.76
2022-12-19T15:07:12.187Z,77.53
2022-12-19T15:11:05.553Z,76.99
2022-12-19T15:14:49.483Z,77.32
2022-12-19T15:16:07.270Z,76.98
2022-12-19T15:18:42.664Z,76.22
2022-12-19T15:21:13.758Z,76.23
2022-12-19T15:23:42.209Z,76.44
2022-12-19T15:26:16.763Z,75.97
2022-12-19T15:28:50.066Z,75.66
2022-12-19T15:31:32.149Z,75.49
2022-12-19T15:36:51.009Z,75.44
2022-12-19T15:39:20.268Z,75.53
2022-12-19T15:41:54.556Z,75.78
2022-12-19T15:44:34.477Z,75.04
2022-12-19T15:47:04.802Z,74.87
2022-12-19T15:49:35.000Z,75.27
2022-12-19T15:52:03.104Z,74.41
2022-12-19T15:54:48.696Z,74.57
2022-12-19T15:57:30.125Z,73.93
2022-12-19T16:00:00.989Z,74.58
2022-12-19T16:03:04.527Z,74.07
2022-12-19T16:05:20.329Z,74.33
2022-12-19T16:07:48.556Z,73.74
2022-12-19T16:10:18.520Z,73.39
2022-12-19T16:12:51.780Z,74.31
2022-12-19T16:15:26.702Z,74.02
2022-12-19T16:17:58.317Z,74.39
2022-12-19T16:20:29.758Z,74.42
2022-12-19T16:22:58.307Z,74.11
2022-12-19T16:25:42.583Z,74.07
2022-12-19T16:28:19.443Z,74.08
2022-12-19T16:30:50.505Z,73.19
2022-12-19T16:33:22.586Z,73.98
2022-12-19T16:36:04.186Z,73.56
2022-12-19T16:38:33.952Z,73.72
2022-12-19T16:41:02.501Z,74.06
2022-12-19T16:43:38.946Z,72.84
2022-12-19T16:46:12.326Z,72.25
2022-12-19T16:48:40.160Z,71.91
2022-12-19T16:51:19.773Z,72.56
2022-12-19T16:53:48.153Z,72.79
2022-12-19T16:56:25.597Z,72.79
2022-12-19T16:58:56.547Z,72.59
2022-12-19T17:01:24.478Z,72.03
2022-12-19T17:03:52.714Z,71.93
2022-12-19T17:06:23.283Z,71.80
2022-12-19T17:08:51.154Z,72.05
2022-12-19T17:11:22.806Z,71.84
2022-12-19T17:13:56.311Z,72.61
2022-12-19T17:16:24.872Z,71.79
2022-12-19T17:18:52.855Z,71.48
2022-12-19T17:21:23.628Z,71.80
2022-12-19T17:23:52.314Z,72.25
2022-12-19T17:26:20.295Z,71.93
2022-12-19T17:28:52.240Z,71.93
2022-12-19T17:31:26.756Z,71.43
2022-12-19T17:34:00.051Z,71.59
2022-12-19T17:36:46.295Z,71.43
2022-12-19T17:39:26.531Z,72.06
2022-12-19T17:41:58.639Z,71.39
2022-12-19T17:44:26.527Z,71.61
2022-12-19T17:46:55.792Z,71.45
2022-12-19T17:49:30.746Z,71.71
2022-12-19T17:52:01.322Z,71.24
2022-12-19T17:54:30.544Z,71.35
2022-12-19T17:56:58.543Z,70.34
2022-12-19T17:59:26.441Z,70.53
2022-12-19T18:01:55.762Z,70.62
2022-12-19T18:04:25.176Z,70.03
2022-12-19T18:06:53.164Z,70.53
2022-12-19T18:09:22.898Z,70.21
2022-12-19T18:11:53.246Z,70.42
2022-12-19T18:14:21.341Z,70.47
2022-12-19T18:16:51.765Z,70.74
2022-12-19T18:19:25.821Z,70.88
2022-12-19T18:21:53.799Z,71.82
2022-12-19T18:24:21.663Z,71.42
2022-12-19T18:26:49.755Z,71.40
2022-12-19T18:29:17.602Z,72.02
2022-12-19T18:31:50.895Z,71.75
2022-12-19T18:34:25.689Z,71.81
2022-12-19T18:36:54.162Z,71.01
2022-12-19T18:39:25.175Z,70.80
2022-12-19T18:41:54.088Z,71.77
2022-12-19T18:44:23.215Z,71.18
2022-12-19T18:46:52.581Z,71.55
2022-12-19T18:49:22.812Z,70.48
2022-12-19T18:51:50.823Z,70.90
2022-12-19T18:54:22.044Z,70.61
2022-12-19T18:56:49.971Z,70.84
2022-12-19T18:59:17.735Z,71.44
2022-12-19T19:01:48.403Z,71.47
2022-12-19T19:04:18.453Z,71.30
2022-12-19T19:06:52.143Z,71.20
2022-12-19T19:09:22.496Z,70.72
2022-12-19T19:11:50.586Z,70.57
2022-12-19T19:14:18.547Z,71.13
2022-12-19T19:16:46.464Z,70.81
2022-12-19T19:19:19.943Z,70.46
2022-12-19T19:21:49.444Z,70.67
2022-12-19T19:24:21.796Z,71.43
2022-12-19T19:26:49.749Z,70.80
2022-12-19T19:29:19.167Z,70.50
2022-12-19T19:31:51.179Z,69.76
2022-12-19T19:34:26.808Z,70.08
2022-12-19T19:37:01.239Z,71.35
2022-12-19T19:39:33.882Z,71.38
2022-12-19T19:42:02.135Z,71.41
2022-12-19T19:44:30.222Z,71.91
2022-12-19T19:46:58.413Z,71.44
2022-12-19T19:49:26.650Z,71.34
2022-12-19T19:52:02.190Z,70.92
2022-12-19T19:54:31.172Z,70.88
2022-12-19T19:56:59.348Z,70.63
2022-12-19T19:59:31.637Z,70.59
2022-12-19T20:01:59.690Z,71.02
2022-12-19T20:04:41.115Z,70.59
2022-12-19T20:07:10.630Z,70.19
2022-12-19T20:09:38.463Z,70.14
2022-12-19T20:12:06.955Z,70.63
2022-12-19T20:14:34.977Z,70.25
2022-12-19T20:17:02.832Z,70.24
2022-12-19T20:19:30.765Z,70.68
2022-12-19T20:22:00.168Z,71.23
2022-12-19T20:24:29.347Z,70.85
2022-12-19T20:26:58.523Z,70.82
2022-12-19T20:29:27.019Z,70.85
2022-12-19T20:31:56.317Z,71.51
2022-12-19T20:34:24.480Z,71.64
2022-12-19T20:36:52.441Z,71.16
2022-12-19T20:39:22.200Z,71.32
2022-12-19T20:41:53.289Z,71.58
2022-12-19T20:44:24.343Z,71.23
2022-12-19T20:46:53.097Z,71.44
2022-12-19T20:49:21.472Z,71.88
2022-12-19T20:51:49.375Z,71.84
2022-12-19T20:54:18.248Z,72.05
2022-12-19T20:56:46.804Z,71.19
2022-12-19T20:59:17.011Z,71.36
2022-12-19T21:01:44.935Z,71.00
2022-12-19T21:04:13.042Z,71.53
2022-12-19T21:06:41.287Z,71.64
2022-12-19T21:09:10.549Z,71.65
2022-12-19T21:11:38.451Z,72.16
2022-12-19T21:14:07.858Z,72.51
2022-12-19T21:16:37.292Z,72.40
2022-12-19T21:19:05.711Z,72.93
2022-12-19T21:21:33.670Z,71.84
2022-12-19T21:24:04.248Z,71.52
2022-12-19T21:26:32.457Z,72.20
2022-12-19T21:29:00.615Z,72.41
2022-12-19T21:31:31.015Z,71.88
2022-12-19T21:34:02.373Z,71.58
2022-12-19T21:36:32.555Z,71.79
2022-12-19T21:39:02.847Z,71.63
2022-12-19T21:41:31.902Z,71.93
2022-12-19T21:44:00.830Z,72.89
2022-12-19T21:46:33.029Z,71.72
2022-12-19T21:49:03.847Z,72.55
2022-12-19T21:51:33.435Z,71.26
2022-12-19T21:54:04.562Z,71.73
2022-12-19T21:56:35.218Z,71.96
2022-12-19T21:59:06.047Z,72.10
2022-12-19T22:01:34.847Z,72.32
2022-12-19T22:04:08.174Z,72.22
2022-12-19T22:06:38.643Z,71.32
2022-12-19T22:09:08.995Z,71.25
2022-12-19T22:11:37.349Z,71.47
2022-12-19T22:14:32.862Z,71.55
2022-12-19T22:17:00.721Z,72.01
2022-12-19T22:19:29.895Z,71.44
2022-12-19T22:21:59.189Z,72.03
2022-12-19T22:24:27.020Z,71.50
2022-12-19T22:26:54.861Z,71.08
2022-12-19T22:29:23.012Z,71.61
2022-12-19T22:31:51.035Z,71.82
2022-12-19T22:34:22.100Z,71.54
2022-12-19T22:36:51.444Z,71.26
2022-12-19T22:39:22.449Z,70.53
2022-12-19T22:41:50.779Z,71.04
2022-12-19T22:44:21.873Z,70.78
2022-12-19T22:46:51.730Z,71.07
2022-12-19T22:49:19.693Z,71.29
2022-12-19T22:51:47.844Z,71.56
2022-12-19T22:54:17.460Z,71.45
2022-12-19T22:56:45.329Z,71.92
2022-12-19T22:59:14.596Z,71.55
2022-12-19T23:01:44.593Z,71.42
2022-12-19T23:04:16.334Z,71.40
2022-12-19T23:06:50.695Z,72.31
2022-12-19T23:09:20.705Z,72.50
2022-12-19T23:11:50.620Z,72.80
2022-12-19T23:14:20.881Z,72.45
2022-12-19T23:16:49.516Z,72.57
2022-12-19T23:19:18.412Z,72.70
2022-12-19T23:21:47.101Z,73.17
2022-12-19T23:24:15.230Z,72.80
2022-12-19T23:26:44.405Z,73.16
2022-12-19T23:29:14.774Z,72.03
2022-12-19T23:31:45.392Z,71.96
2022-12-19T23:34:13.953Z,72.23
2022-12-19T23:39:30.266Z,72.42
2022-12-19T23:41:59.746Z,71.93
2022-12-19T23:44:27.986Z,72.35
2022-12-19T23:47:02.716Z,72.05
2022-12-19T23:49:31.994Z,72.18
2022-12-19T23:51:59.979Z,72.37
2022-12-19T23:54:27.864Z,72.48
2022-12-19T23:56:55.647Z,72.97
2022-12-19T23:59:24.787Z,72.22
